Aviation Digital Data Service (ADDS)

Output produced by TAFs form (1041 UTC 24 April 2018)
found at http://aviationweather.gov/adds/tafs/
 
KFUL 240953Z AUTO 00000KT 6SM BR OVC007 13/12 A2998 RMK AO2 SLP152 T01330117
KBUR 240953Z 18003KT 8SM CLR 13/12 A2998 RMK AO2 SLP141 T01330117
KBUR 240541Z 2406/2506 12005KT P6SM SCT250 
     FM240800 VRB03KT P6SM SCT250 
     FM242000 18010KT P6SM SCT250 
     FM250400 12005KT P6SM SCT250
       
KONT 240953Z 00000KT 10SM BKN250 13/09 A2998 RMK AO2 SLP139 T01330089
KONT 240520Z 2406/2512 VRB04KT P6SM SCT250 
     FM242100 26011G18KT P6SM SCT250 
     FM250400 VRB04KT P6SM SCT250
       
KCNO 240953Z AUTO 00000KT 6SM HZ CLR 13/09 A2999 RMK AO2 SLP151 T01330089
KAJO 240956Z AUTO 6SM BR CLR 12/11 A2999 RMK AO2 SLP162 T01220106 $
KLGB 240953Z 00000KT 5SM BR OVC007 13/12 A2999 RMK AO2 SLP156 T01330117
KLGB 240800Z 2408/2506 VRB03KT P6SM SCT250 
     FM240900 VRB03KT 6SM BR OVC007 
     FM241600 17005KT P6SM BKN010 
     FM241800 19008KT P6SM SCT012 
     FM242300 30008KT P6SM SCT012 
     FM250500 VRB03KT P6SM OVC012
       
KHHR 240953Z AUTO 00000KT 5SM BR OVC007 13/12 A3000 RMK AO2 SLP158 T01330117 $
KLAX 240953Z 00000KT 3SM BR FEW003 SCT006 12/11 A3000 RMK AO2 SLP156 T01220106
KLAX 241000Z 2410/2512 VRB03KT P6SM SCT006 
     FM241300 VRB03KT 3SM BR SCT003 OVC006 
     FM241700 VRB03KT 5SM BR OVC010 
     FM241900 26012KT P6SM SCT012 SCT250 
     FM250200 26008KT 6SM BR BKN006 
     FM250700 VRB03KT 6SM BR BKN006
       
KAVX 240951Z AUTO 00000KT 10SM CLR 18/03 A3000 RMK AO2 SLP135 T01780028
KSMO 240951Z AUTO 00000KT 6SM BR CLR 12/11 A2999 RMK AO2 SLP155 T01170106
KSMO 241000Z 2410/2506 VRB03KT P6SM SCT006 
     FM241300 VRB03KT P6SM OVC005 
     FM241600 20005KT P6SM BKN010 
     FM242000 24008KT P6SM SCT010 SCT250 
     FM250200 24006KT 6SM BR OVC007 
     FM250500 VRB03KT 6SM BR OVC003
       
KCMA 241002Z AUTO 18003KT 5SM BR OVC006 13/11 A2998 RMK AO2 T01330111
KCMA 240843Z 2409/2506 VRB03KT 5SM BR OVC004 
     FM241100 VRB03KT 2SM BR OVC003 
     FM241600 23005KT 6SM BR BKN007 
     FM241800 24008KT P6SM FEW010 SCT250 
     FM250400 VRB03KT 4SM BR OVC003
       
KOXR 241004Z AUTO 15004KT 4SM BR OVC003 12/12 A2999 RMK AO2 T01170117
KOXR 240844Z 2409/2506 VRB03KT 2SM BR OVC002 
     FM241400 VRB03KT 4SM BR OVC006 
     FM241700 24006KT 6SM BR BKN008 
     FM242100 25008KT P6SM SCT010 SCT250 
     FM250300 25006KT 4SM BR OVC003
       
KRAL 240953Z AUTO 00000KT 10SM CLR 14/10 A2998 RMK AO2 SLP138 T01390100
KRIV 240958Z AUTO 00000KT 10SM CLR 10/01 A2999 RMK AO2 SLP146 T00960007
TAF KRIV 240403Z 2404/2510 VRB05KT 9999 FEW250 QNH2995INS 
     BECMG 2418/2419 30009KT 9999 FEW250 QNH2990INS 
     TEMPO 2421/2502 30012G18KT 
     BECMG 2503/2504 VRB03KT 9999 BKN250 QNH2995INS TX28/2421Z TN07/2412Z
       
KF70 241035Z AUTO 01003KT 10SM CLR 12/07 A2999 RMK AO1
KRNM 240953Z AUTO 00000KT 10SM CLR 08/06 A2998 RMK AO2 SLP141 T00780061
KCRQ 241016Z AUTO 00000KT 5SM BR BKN004 BKN008 13/12 A2997 RMK AO2 T01280122
KCRQ 240811Z 2408/2506 VRB04KT 6SM BR OVC006 
     FM241700 VRB04KT P6SM SCT007 SCT250 
     FM241900 27008KT P6SM SCT250 
     FM250000 VRB04KT P6SM SCT009
       
KOKB 241012Z AUTO 00000KT 5SM BR OVC004 13/12 A2997 RMK AO2 T01330117
KIZA 241035Z AUTO 00000KT 1/4SM FG OVC001 07/07 A2998 RMK AO2